JBU418 KJFK-KBOS
Flight info
| Callsign | JBU418 |
|---|---|
| Flight time | 0h 39m |
| Altitude | 21000 |
| Route | DCT MERIT ROBUC3 |
| Aircraft | A21N/M-VGDW/C |
Departure
| Time | 2026-05-09 18:01 |
|---|---|
| Airport | John F. Kennedy International Airport (KJFK) |
Arrival
| Time | 2026-05-09 18:41 |
|---|---|
| Airport | Boston Logan International Airport (KBOS) |
| Time | Latitude | Longitude | Altitude | Speed | Heading |
|---|---|---|---|---|---|
| 2026-05-09 17:29 | 40.64432 | -73.77631 | 21 ft | 0 kts | 32° |
| 2026-05-09 17:48 | 40.64409 | -73.77649 | 20 ft | 4 kts | 32° |
| 2026-05-09 17:48 | 40.64388 | -73.77668 | 20 ft | 3 kts | 37° |
| 2026-05-09 17:49 | 40.64377 | -73.77681 | 21 ft | 2 kts | 59° |
| 2026-05-09 17:49 | 40.64375 | -73.77694 | 22 ft | 2 kts | 118° |
| 2026-05-09 17:49 | 40.64386 | -73.77712 | 20 ft | 2 kts | 134° |
| 2026-05-09 17:49 | 40.64374 | -73.77698 | 22 ft | 3 kts | 143° |
| 2026-05-09 17:50 | 40.64362 | -73.77688 | 19 ft | 2 kts | 149° |
| 2026-05-09 17:50 | 40.64359 | -73.77686 | 19 ft | 0 kts | 149° |
| 2026-05-09 17:53 | 40.64351 | -73.77679 | 19 ft | 2 kts | 149° |
| 2026-05-09 17:53 | 40.64328 | -73.77662 | 19 ft | 5 kts | 150° |
| 2026-05-09 17:53 | 40.64285 | -73.77630 | 19 ft | 9 kts | 150° |
| 2026-05-09 17:54 | 40.64234 | -73.77592 | 19 ft | 8 kts | 151° |
| 2026-05-09 17:54 | 40.64185 | -73.77557 | 19 ft | 10 kts | 151° |
| 2026-05-09 17:54 | 40.64117 | -73.77496 | 19 ft | 14 kts | 139° |
| 2026-05-09 17:54 | 40.64076 | -73.77391 | 19 ft | 13 kts | 56° |
| 2026-05-09 17:55 | 40.64176 | -73.77304 | 19 ft | 19 kts | 31° |
| 2026-05-09 17:55 | 40.64288 | -73.77217 | 19 ft | 17 kts | 31° |
| 2026-05-09 17:55 | 40.64380 | -73.77145 | 19 ft | 13 kts | 30° |
| 2026-05-09 17:55 | 40.64421 | -73.77067 | 19 ft | 10 kts | 71° |
| 2026-05-09 17:56 | 40.64475 | -73.76994 | 19 ft | 15 kts | 16° |
| 2026-05-09 17:56 | 40.64576 | -73.76935 | 18 ft | 16 kts | 30° |
| 2026-05-09 17:56 | 40.64659 | -73.76870 | 22 ft | 13 kts | 31° |
| 2026-05-09 17:57 | 40.64839 | -73.76729 | 20 ft | 17 kts | 31° |
| 2026-05-09 17:57 | 40.64946 | -73.76646 | 19 ft | 17 kts | 31° |
| 2026-05-09 17:57 | 40.65017 | -73.76591 | 19 ft | 7 kts | 30° |
| 2026-05-09 17:57 | 40.65047 | -73.76567 | 19 ft | 4 kts | 31° |
| 2026-05-09 17:58 | 40.65095 | -73.76518 | 19 ft | 10 kts | 56° |
| 2026-05-09 17:58 | 40.65094 | -73.76463 | 19 ft | 5 kts | 121° |
| 2026-05-09 17:58 | 40.65093 | -73.76459 | 21 ft | 0 kts | 122° |
| 2026-05-09 17:59 | 40.65085 | -73.76443 | 19 ft | 7 kts | 121° |
| 2026-05-09 17:59 | 40.65047 | -73.76369 | 19 ft | 10 kts | 142° |
| 2026-05-09 18:00 | 40.64994 | -73.76378 | 20 ft | 0 kts | 211° |
| 2026-05-09 18:00 | 40.64973 | -73.76394 | 19 ft | 19 kts | 211° |
| 2026-05-09 18:01 | 40.64685 | -73.76619 | 21 ft | 75 kts | 211° |
| 2026-05-09 18:01 | 40.64060 | -73.77107 | 27 ft | 134 kts | 211° |
| 2026-05-09 18:01 | 40.63127 | -73.77837 | 136 ft | 165 kts | 211° |
| 2026-05-09 18:01 | 40.62157 | -73.78612 | 743 ft | 161 kts | 211° |
| 2026-05-09 18:02 | 40.61213 | -73.79378 | 1372 ft | 160 kts | 213° |
| 2026-05-09 18:02 | 40.60250 | -73.80162 | 1793 ft | 172 kts | 214° |
| 2026-05-09 18:02 | 40.59159 | -73.81035 | 2097 ft | 196 kts | 213° |
| 2026-05-09 18:02 | 40.57840 | -73.81755 | 2487 ft | 220 kts | 190° |
| 2026-05-09 18:03 | 40.56263 | -73.81426 | 2968 ft | 245 kts | 159° |
| 2026-05-09 18:03 | 40.54923 | -73.79969 | 3658 ft | 265 kts | 129° |
| 2026-05-09 18:03 | 40.54217 | -73.77689 | 4562 ft | 279 kts | 102° |
| 2026-05-09 18:03 | 40.54360 | -73.75098 | 5446 ft | 293 kts | 75° |
| 2026-05-09 18:04 | 40.55333 | -73.72708 | 6293 ft | 302 kts | 53° |
| 2026-05-09 18:04 | 40.56714 | -73.70587 | 7100 ft | 309 kts | 48° |
| 2026-05-09 18:04 | 40.58183 | -73.68494 | 7914 ft | 314 kts | 47° |
| 2026-05-09 18:04 | 40.59683 | -73.66384 | 8827 ft | 317 kts | 47° |
| 2026-05-09 18:05 | 40.61211 | -73.64245 | 9701 ft | 322 kts | 47° |
| 2026-05-09 18:05 | 40.62770 | -73.62078 | 10419 ft | 331 kts | 47° |
| 2026-05-09 18:05 | 40.64402 | -73.59805 | 10783 ft | 353 kts | 47° |
| 2026-05-09 18:05 | 40.66136 | -73.57385 | 11155 ft | 373 kts | 44° |
| 2026-05-09 18:06 | 40.68264 | -73.55287 | 11471 ft | 391 kts | 28° |
| 2026-05-09 18:06 | 40.70736 | -73.53612 | 11846 ft | 405 kts | 22° |
| 2026-05-09 18:06 | 40.73328 | -73.52042 | 12429 ft | 414 kts | 21° |
| 2026-05-09 18:06 | 40.75940 | -73.50501 | 13108 ft | 418 kts | 21° |
| 2026-05-09 18:07 | 40.78616 | -73.48932 | 13815 ft | 422 kts | 20° |
| 2026-05-09 18:07 | 40.81313 | -73.47353 | 14437 ft | 427 kts | 20° |
| 2026-05-09 18:07 | 40.84044 | -73.45754 | 15006 ft | 432 kts | 20° |
| 2026-05-09 18:07 | 40.86804 | -73.44136 | 15648 ft | 434 kts | 20° |
| 2026-05-09 18:08 | 40.89581 | -73.42507 | 16274 ft | 438 kts | 20° |
| 2026-05-09 18:08 | 40.92379 | -73.40865 | 16862 ft | 441 kts | 20° |
| 2026-05-09 18:08 | 40.95208 | -73.39203 | 17497 ft | 444 kts | 19° |
| 2026-05-09 18:08 | 40.98042 | -73.37537 | 18095 ft | 447 kts | 19° |
| 2026-05-09 18:09 | 41.00903 | -73.35853 | 18544 ft | 453 kts | 19° |
| 2026-05-09 18:09 | 41.03804 | -73.34145 | 18965 ft | 458 kts | 19° |
| 2026-05-09 18:09 | 41.06729 | -73.32420 | 19461 ft | 461 kts | 19° |
| 2026-05-09 18:09 | 41.09668 | -73.30684 | 19935 ft | 464 kts | 20° |
| 2026-05-09 18:10 | 41.12632 | -73.28933 | 20387 ft | 467 kts | 19° |
| 2026-05-09 18:10 | 41.14595 | -73.27772 | 20697 ft | 468 kts | 19° |
| 2026-05-09 18:10 | 41.18540 | -73.25436 | 20955 ft | 469 kts | 19° |
| 2026-05-09 18:10 | 41.21540 | -73.23657 | 20954 ft | 472 kts | 19° |
| 2026-05-09 18:11 | 41.24547 | -73.21873 | 20953 ft | 474 kts | 19° |
| 2026-05-09 18:11 | 41.27574 | -73.20075 | 20955 ft | 474 kts | 19° |
| 2026-05-09 18:11 | 41.30586 | -73.18284 | 20958 ft | 474 kts | 19° |
| 2026-05-09 18:11 | 41.33564 | -73.16382 | 20944 ft | 477 kts | 26° |
| 2026-05-09 18:12 | 41.36217 | -73.13687 | 20964 ft | 483 kts | 44° |
| 2026-05-09 18:12 | 41.38229 | -73.10100 | 20962 ft | 486 kts | 62° |
| 2026-05-09 18:12 | 41.39411 | -73.05970 | 20951 ft | 484 kts | 79° |
| 2026-05-09 18:12 | 41.39909 | -73.01498 | 20955 ft | 482 kts | 86° |
| 2026-05-09 18:13 | 41.40250 | -72.97109 | 20954 ft | 483 kts | 86° |
| 2026-05-09 18:13 | 41.40623 | -72.92659 | 20940 ft | 484 kts | 86° |
| 2026-05-09 18:13 | 41.41035 | -72.88203 | 20945 ft | 485 kts | 85° |
| 2026-05-09 18:13 | 41.41473 | -72.83750 | 20940 ft | 484 kts | 85° |
| 2026-05-09 18:14 | 41.41926 | -72.79308 | 20949 ft | 484 kts | 84° |
| 2026-05-09 18:14 | 41.42387 | -72.74851 | 20962 ft | 484 kts | 84° |
| 2026-05-09 18:14 | 41.42850 | -72.70401 | 20959 ft | 484 kts | 84° |
| 2026-05-09 18:14 | 41.43314 | -72.65954 | 20961 ft | 484 kts | 84° |
| 2026-05-09 18:15 | 41.43778 | -72.61506 | 20963 ft | 484 kts | 84° |
| 2026-05-09 18:15 | 41.44240 | -72.57062 | 20957 ft | 484 kts | 84° |
| 2026-05-09 18:15 | 41.44701 | -72.52616 | 20961 ft | 483 kts | 84° |
| 2026-05-09 18:15 | 41.45160 | -72.48178 | 20964 ft | 483 kts | 84° |
| 2026-05-09 18:16 | 41.45611 | -72.43800 | 20963 ft | 483 kts | 84° |
| 2026-05-09 18:16 | 41.46066 | -72.39365 | 20962 ft | 483 kts | 84° |
| 2026-05-09 18:16 | 41.46519 | -72.34933 | 20963 ft | 483 kts | 84° |
| 2026-05-09 18:16 | 41.46973 | -72.30480 | 20964 ft | 483 kts | 84° |
| 2026-05-09 18:17 | 41.47423 | -72.26040 | 20964 ft | 483 kts | 84° |
| 2026-05-09 18:17 | 41.48002 | -72.21635 | 20960 ft | 484 kts | 76° |
| 2026-05-09 18:17 | 41.49199 | -72.17431 | 20968 ft | 485 kts | 65° |
| 2026-05-09 18:17 | 41.50654 | -72.13370 | 20963 ft | 485 kts | 64° |
| 2026-05-09 18:18 | 41.52149 | -72.09334 | 20965 ft | 485 kts | 63° |
| 2026-05-09 18:18 | 41.53645 | -72.05292 | 20967 ft | 485 kts | 64° |
| 2026-05-09 18:18 | 41.55132 | -72.01247 | 20966 ft | 485 kts | 64° |
| 2026-05-09 18:18 | 41.56479 | -71.97175 | 20973 ft | 485 kts | 68° |
| 2026-05-09 18:19 | 41.57741 | -71.92995 | 20986 ft | 485 kts | 69° |
| 2026-05-09 18:19 | 41.60229 | -71.84604 | 20973 ft | 486 kts | 69° |
| 2026-05-09 18:19 | 41.61463 | -71.80412 | 20831 ft | 481 kts | 69° |
| 2026-05-09 18:20 | 41.62672 | -71.76308 | 20564 ft | 468 kts | 69° |
| 2026-05-09 18:20 | 41.63856 | -71.72285 | 20363 ft | 463 kts | 69° |
| 2026-05-09 18:20 | 41.65038 | -71.68262 | 20174 ft | 466 kts | 69° |
| 2026-05-09 18:20 | 41.66223 | -71.64229 | 19960 ft | 466 kts | 69° |
| 2026-05-09 18:21 | 41.67406 | -71.60196 | 19292 ft | 465 kts | 69° |
| 2026-05-09 18:21 | 41.68569 | -71.56226 | 18633 ft | 466 kts | 69° |
| 2026-05-09 18:21 | 41.69760 | -71.52155 | 18035 ft | 472 kts | 68° |
| 2026-05-09 18:21 | 41.70955 | -71.48064 | 17410 ft | 471 kts | 69° |
| 2026-05-09 18:22 | 41.72154 | -71.44000 | 16782 ft | 467 kts | 66° |
| 2026-05-09 18:22 | 41.73640 | -71.40172 | 16225 ft | 461 kts | 60° |
| 2026-05-09 18:22 | 41.75220 | -71.36464 | 15677 ft | 457 kts | 60° |
| 2026-05-09 18:22 | 41.76804 | -71.32787 | 15115 ft | 453 kts | 60° |
| 2026-05-09 18:23 | 41.78372 | -71.29140 | 14557 ft | 449 kts | 61° |
| 2026-05-09 18:23 | 41.79920 | -71.25527 | 14010 ft | 445 kts | 62° |
| 2026-05-09 18:23 | 41.81448 | -71.21946 | 13410 ft | 440 kts | 62° |
| 2026-05-09 18:23 | 41.82960 | -71.18396 | 12851 ft | 436 kts | 62° |
| 2026-05-09 18:24 | 41.84457 | -71.14873 | 12320 ft | 433 kts | 62° |
| 2026-05-09 18:24 | 41.85929 | -71.11426 | 12008 ft | 418 kts | 62° |
| 2026-05-09 18:24 | 41.87362 | -71.08109 | 11738 ft | 404 kts | 62° |
| 2026-05-09 18:25 | 41.90070 | -71.01848 | 11316 ft | 376 kts | 62° |
| 2026-05-09 18:25 | 41.91355 | -70.98871 | 11108 ft | 363 kts | 62° |
| 2026-05-09 18:25 | 41.92596 | -70.95990 | 10930 ft | 350 kts | 63° |
| 2026-05-09 18:25 | 41.93797 | -70.93201 | 10642 ft | 341 kts | 63° |
| 2026-05-09 18:26 | 41.94977 | -70.90454 | 10282 ft | 336 kts | 63° |
| 2026-05-09 18:26 | 41.96141 | -70.87741 | 10027 ft | 334 kts | 63° |
| 2026-05-09 18:26 | 41.97298 | -70.85041 | 9835 ft | 334 kts | 63° |
| 2026-05-09 18:26 | 41.98457 | -70.82336 | 9623 ft | 333 kts | 63° |
| 2026-05-09 18:27 | 41.99610 | -70.79644 | 9401 ft | 332 kts | 63° |
| 2026-05-09 18:27 | 42.00371 | -70.77868 | 9285 ft | 331 kts | 62° |
| 2026-05-09 18:27 | 42.02189 | -70.74561 | 8983 ft | 331 kts | 50° |
| 2026-05-09 18:27 | 42.03717 | -70.72246 | 8793 ft | 330 kts | 48° |
| 2026-05-09 18:28 | 42.05255 | -70.69960 | 8585 ft | 329 kts | 48° |
| 2026-05-09 18:28 | 42.06293 | -70.68419 | 8457 ft | 328 kts | 49° |
| 2026-05-09 18:28 | 42.07803 | -70.66167 | 8247 ft | 327 kts | 49° |
| 2026-05-09 18:28 | 42.09327 | -70.63892 | 8046 ft | 326 kts | 48° |
| 2026-05-09 18:29 | 42.11038 | -70.61903 | 7823 ft | 324 kts | 25° |
| 2026-05-09 18:29 | 42.13121 | -70.60895 | 7456 ft | 315 kts | 9° |
| 2026-05-09 18:29 | 42.15261 | -70.60279 | 7143 ft | 313 kts | 6° |
| 2026-05-09 18:29 | 42.17399 | -70.59718 | 6842 ft | 313 kts | 6° |
| 2026-05-09 18:30 | 42.19528 | -70.59154 | 6546 ft | 311 kts | 6° |
| 2026-05-09 18:30 | 42.21611 | -70.58591 | 6254 ft | 308 kts | 6° |
| 2026-05-09 18:30 | 42.23708 | -70.58016 | 5944 ft | 307 kts | 6° |
| 2026-05-09 18:30 | 42.25796 | -70.57438 | 5646 ft | 306 kts | 7° |
| 2026-05-09 18:31 | 42.27875 | -70.56860 | 5350 ft | 304 kts | 7° |
| 2026-05-09 18:31 | 42.29942 | -70.56289 | 5066 ft | 301 kts | 5° |
| 2026-05-09 18:31 | 42.31989 | -70.56179 | 4991 ft | 288 kts | 342° |
| 2026-05-09 18:31 | 42.33758 | -70.57185 | 4994 ft | 269 kts | 315° |
| 2026-05-09 18:32 | 42.35166 | -70.58811 | 4991 ft | 265 kts | 308° |
| 2026-05-09 18:32 | 42.36484 | -70.60549 | 4991 ft | 264 kts | 307° |
| 2026-05-09 18:32 | 42.37788 | -70.62298 | 4981 ft | 265 kts | 307° |
| 2026-05-09 18:32 | 42.39099 | -70.64047 | 4984 ft | 265 kts | 307° |
| 2026-05-09 18:33 | 42.40419 | -70.65799 | 4979 ft | 265 kts | 307° |
| 2026-05-09 18:33 | 42.41736 | -70.67540 | 4634 ft | 264 kts | 307° |
| 2026-05-09 18:33 | 42.43046 | -70.69271 | 4143 ft | 263 kts | 308° |
| 2026-05-09 18:33 | 42.44345 | -70.70986 | 3615 ft | 265 kts | 310° |
| 2026-05-09 18:34 | 42.45663 | -70.72728 | 3149 ft | 264 kts | 311° |
| 2026-05-09 18:34 | 42.46981 | -70.74465 | 3001 ft | 265 kts | 312° |
| 2026-05-09 18:34 | 42.48307 | -70.76217 | 2996 ft | 266 kts | 312° |
| 2026-05-09 18:34 | 42.49622 | -70.77951 | 2983 ft | 258 kts | 312° |
| 2026-05-09 18:35 | 42.50868 | -70.79587 | 2988 ft | 243 kts | 312° |
| 2026-05-09 18:35 | 42.52161 | -70.81005 | 3012 ft | 236 kts | 316° |
| 2026-05-09 18:35 | 42.53098 | -70.82693 | 2997 ft | 218 kts | 286° |
| 2026-05-09 18:35 | 42.53374 | -70.84656 | 3002 ft | 210 kts | 266° |
| 2026-05-09 18:36 | 42.53334 | -70.86631 | 3000 ft | 210 kts | 261° |
| 2026-05-09 18:36 | 42.53139 | -70.88579 | 3004 ft | 208 kts | 252° |
| 2026-05-09 18:36 | 42.52653 | -70.90425 | 3000 ft | 209 kts | 240° |
| 2026-05-09 18:36 | 42.51849 | -70.92052 | 2993 ft | 207 kts | 226° |
| 2026-05-09 18:37 | 42.50772 | -70.93336 | 2932 ft | 204 kts | 213° |
| 2026-05-09 18:37 | 42.49554 | -70.94197 | 2680 ft | 193 kts | 200° |
| 2026-05-09 18:37 | 42.48336 | -70.94774 | 2409 ft | 181 kts | 198° |
| 2026-05-09 18:37 | 42.47194 | -70.95320 | 2162 ft | 165 kts | 198° |
| 2026-05-09 18:38 | 42.46164 | -70.95825 | 1925 ft | 151 kts | 198° |
| 2026-05-09 18:38 | 42.45210 | -70.96288 | 1736 ft | 143 kts | 198° |
| 2026-05-09 18:38 | 42.44270 | -70.96744 | 1529 ft | 144 kts | 198° |
| 2026-05-09 18:40 | 42.37662 | -70.99952 | 117 ft | 145 kts | 197° |
| 2026-05-09 18:40 | 42.36736 | -71.00395 | 29 ft | 129 kts | 200° |
| 2026-05-09 18:40 | 42.36059 | -71.00726 | 30 ft | 75 kts | 201° |
| 2026-05-09 18:41 | 42.35738 | -71.00880 | 28 ft | 33 kts | 199° |
| 2026-05-09 18:41 | 42.35530 | -71.00978 | 28 ft | 32 kts | 199° |
| 2026-05-09 18:41 | 42.35384 | -71.01096 | 28 ft | 18 kts | 266° |
| 2026-05-09 18:41 | 42.35420 | -71.01251 | 28 ft | 17 kts | 290° |
| 2026-05-09 18:42 | 42.35478 | -71.01361 | 28 ft | 13 kts | 359° |
| 2026-05-09 18:42 | 42.35565 | -71.01330 | 28 ft | 14 kts | 13° |
| 2026-05-09 18:42 | 42.35668 | -71.01302 | 28 ft | 15 kts | 17° |
| 2026-05-09 18:42 | 42.35747 | -71.01334 | 28 ft | 12 kts | 296° |
| 2026-05-09 18:43 | 42.35775 | -71.01435 | 28 ft | 13 kts | 289° |
| 2026-05-09 18:43 | 42.35802 | -71.01539 | 28 ft | 14 kts | 289° |
| 2026-05-09 18:43 | 42.35854 | -71.01656 | 28 ft | 16 kts | 353° |
| 2026-05-09 18:43 | 42.35959 | -71.01615 | 28 ft | 14 kts | 20° |
| 2026-05-09 18:44 | 42.36041 | -71.01575 | 28 ft | 13 kts | 20° |
| 2026-05-09 18:44 | 42.36114 | -71.01540 | 28 ft | 12 kts | 20° |
| 2026-05-09 18:44 | 42.36220 | -71.01489 | 28 ft | 17 kts | 19° |
| 2026-05-09 18:44 | 42.36321 | -71.01439 | 28 ft | 13 kts | 20° |
| 2026-05-09 18:45 | 42.36391 | -71.01466 | 29 ft | 11 kts | 300° |
| 2026-05-09 18:45 | 42.36434 | -71.01561 | 29 ft | 11 kts | 301° |
| 2026-05-09 18:45 | 42.36468 | -71.01629 | 29 ft | 6 kts | 321° |
| 2026-05-09 18:45 | 42.36501 | -71.01630 | 29 ft | 6 kts | 16° |
| 2026-05-09 18:46 | 42.36532 | -71.01615 | 29 ft | 4 kts | 19° |
| 2026-05-09 18:46 | 42.36553 | -71.01605 | 29 ft | 2 kts | 19° |
| 2026-05-09 18:46 | 42.36554 | -71.01605 | 29 ft | 0 kts | 19° |